Terminal Aerodrome Forecast
Issued by NWS Sterling, VA

Home | Current Version | Previous Version | Text Only | Print | Product List | Glossary On
Versions: 1 2 3 4 5 6 7 8 9 10 11 12 13 14 15 16 17 18 19 20 21 22 23 24 25
000
FTUS41 KLWX 231731
TAFCHO
TAF
KCHO 231731Z 2318/2418 03012G25KT 2SM -RA OVC010
     FM232300 02008KT 1SM -RA OVC010
     FM240000 02008KT P6SM OVC003
     FM240400 34008KT P6SM OVC003
     FM240600 34007KT P6SM BKN015
     FM240900 32006KT P6SM BKN035
     FM241200 32006KT P6SM BKN070
     FM241500 31010KT P6SM SCT050=

USA.gov is the U.S. government's official web portal to all federal, state and local government web resources and services.